Tiempo atmosférico en la estación meteorológica de Quintana del Castillo, Villameca, León (995 m.)



Fecha
DESCASC
Temp. máxima en grados centígrados (hora)
DESCASC
Temp. mínima en grados centígrados (hora)
DESCASC
Temp. media en grados centígrados
DESCASC
Racha de viento máxima en m/sg (hora)
DESCASC
Velocidad máxima media en intervalos de 10 minutos(hora)
DESCASC
Precipitaciones diarias en mm
DESCASC
Precipitaciones de 00:00 a 06:00 en mm
DESCASC
Precipitaciones de 06:00 a 12:00 en mm
DESCASC
Precipitaciones de 12:00 a 18:00 en mm
DESCASC
Precipitaciones de 18:00 a 24:00 en mm
DESCASC
22-11-2020 15.3 (15:30) 1.6 (08:40) 8.5 8.33 (14:10) 5.56 (14:10) 0 0 0 0 0
21-11-2020 17.4 (15:00) 1.7 (04:00) 9.5 5.28 (07:50) 4.17 (07:50) 0 0 0 0 0
20-11-2020 11.9 (15:10) 3.4 (23:20) 7.6 4.44 (21:30) 3.33 (21:20) 0 0 0 0 0
19-11-2020 17.3 (15:30) 4.7 (00:00) 11 6.67 (15:40) 4.72 (15:40) 0.2 0.2 0 0 0
18-11-2020 13.3 (16:30) 3 (00:00) 8.2 4.72 (23:30) 3.33 (23:20) 0 0 0 0 0
17-11-2020 14.6 (15:10) 2.6 (00:00) 8.6 4.72 (00:20) 3.61 (00:20) 0 0 0 0 0
16-11-2020 13.6 (14:40) 4 (00:00) 8.8 10 (00:10) 6.94 (00:10) 0 0 0 0 0
15-11-2020 12.9 (12:40) 9.4 (00:00) 11.1 11.67 (14:50) 7.22 (16:50) 8 0 0.4 6 1.6
14-11-2020 9.6 (23:40) 6.6 (00:00) 8.1 3.61 (01:20) 2.22 (11:40) 0 0 0 0 0
13-11-2020 10.6 (14:30) 3.9 (00:00) 7.3 4.44 (12:50) 2.5 (05:10) 0 0 0 0 0
12-11-2020 13.4 (16:00) 6.6 (00:00) 10 4.17 (15:10) 2.22 (10:10) 0 0 0 0 0
11-11-2020 8.7 (16:00) 5.9 (00:00) 7.3 3.61 (15:00) 2.5 (18:20) 0.2 0 0 0 0.2
10-11-2020 11.1 (14:00) 2.5 (00:00) 6.8 7.5 (04:20) 4.72 (05:30) 0 0 0 0 0
09-11-2020 13.1 (16:00) 7.3 (00:00) 10.2 7.22 (16:00) 3.89 (16:20) 0.2 0.2 0 0 0
08-11-2020 12.7 (15:30) 8.3 (00:00) 10.5 9.17 (03:10) 3.61 (03:10) 1.4 0.2 1 0.2 0
07-11-2020 14.4 (14:50) 8.7 (00:00) 11.5 8.33 (14:30) 4.17 (14:30) 4.2 4 0.2 0 0
06-11-2020 12.7 (13:10) 8.5 (00:00) 10.6 13.89 (22:20) 6.39 (22:20) 3.8 0.8 0.4 1.2 1.4
05-11-2020 11.4 (13:10) 5.2 (00:00) 8.3 15.28 (10:50) 9.17 (10:50) 3.8 0 0.2 0 3.6
04-11-2020 9 (12:30) 0.1 (00:00) 4.6 12.5 (16:20) 8.89 (16:20) 0.2 0 0 0 0.2
03-11-2020 10.8 (14:10) 1.5 (00:00) 6.2 10.28 (03:20) 7.5 (03:20) 0 0 0 0 0
02-11-2020 15.2 (13:10) 8.4 (00:00) 11.8 11.11 (19:30) 7.78 (19:50) 2.4 0.2 0.4 1.6 0.2
01-11-2020 14.5 (13:50) 9.6 (00:00) 12.1 3.33 (15:20) 1.67 (03:10) 0 0 0 0 0
31-10-2020 14.8 (16:30) 4.5 (00:00) 9.7 3.89 (02:40) 2.78 (01:00) 0 0 0 0 0
30-10-2020 14.3 (16:10) 2.9 (00:00) 8.6 4.72 (14:20) 3.06 (23:10) 0 0 0 0 0
29-10-2020 13.6 (14:30) 2.5 (00:00) 8.1 6.11 (04:20) 4.17 (04:20) 0 0 0 0 0
28-10-2020 12.6 (15:50) 5.8 (00:00) 9.2 12.78 (14:10) 7.5 (13:20) 1 1 0 0 0
27-10-2020 10 (14:40) 5.2 (00:00) 7.6 10.28 (04:00) 5.56 (05:10) 3.8 0.2 0 0.8 2.8

Gráficas

Temp. máximas Temp. mínimas Temp. medias Precipitaciones Rachas de viento máximas Velocidades máximas media en intervalos de 10 minutos

Datos horarios

Fecha y hora oficial Temperatura (ºC) Velocidad del viento (km/h) Dirección del viento Racha (km/h) Dirección de racha Precipitación (mm) Presión (hPa) Tendencia (hPa) Humedad (%)
2020-11-25 23:00:00 5.8 14 Este 26 Este 0.2 -- -- 99
2020-11-25 22:00:00 6 15 Este 29 Sudeste 0 -- -- 98
2020-11-25 21:00:00 5.5 19 Este 32 Este 0 -- -- 99
2020-11-25 20:00:00 4.8 14 Nordeste 21 Este 0.2 -- -- 100
2020-11-25 19:00:00 4.5 11 Nordeste 18 Nordeste 0.4 -- -- 100
2020-11-25 18:00:00 4.7 10 Este 18 Sudeste 0.6 -- -- 98
2020-11-25 17:00:00 5 6 Sudeste 13 Sudeste 1.4 -- -- 98
2020-11-25 16:00:00 5 3 Sur 15 Sur 2.8 -- -- 98
2020-11-25 15:00:00 5.2 5 Sudeste 15 Sur 2 -- -- 98
2020-11-25 14:00:00 5.4 5 Sur 15 Sur 1.8 -- -- 98
2020-11-25 13:00:00 5.3 3 Sudoeste 11 Sur 1.6 -- -- 98
2020-11-25 12:00:00 5 5 Sur 12 Sur 1.4 -- -- 99
2020-11-25 11:00:00 4.6 4 Sur 12 Sudeste 1 -- -- 99
2020-11-25 10:00:00 4.4 6 Sudeste 11 Sudeste 0.8 -- -- 100
2020-11-25 09:00:00 4.2 0 Calma 14 Sudeste 0.4 -- -- 99
2020-11-25 08:00:00 4.3 5 Sudeste 16 Sudeste 0.2 -- -- 99
2020-11-25 07:00:00 4.5 6 Sudeste 13 Sudeste 0.8 -- -- 99
2020-11-25 06:00:00 4.8 5 Sudeste 13 Sudeste 0.4 -- -- 98
2020-11-25 05:00:00 5 5 Sudeste 11 Sudeste 0.2 -- -- 98
2020-11-25 04:00:00 5.1 4 Sudeste 9 Sudeste 0 -- -- 97
2020-11-25 03:00:00 5.4 6 Sudeste 15 Este 0 -- -- 96
2020-11-25 02:00:00 5.3 9 Este 14 Este 0 -- -- 96
2020-11-25 01:00:00 5.3 4 Sudeste 10 Este 0 -- -- 94
2020-11-25 00:00:00 5 6 Este 9 Este 0 -- -- 95
2020-11-24 23:00:00 4.7 0 Calma 10 Nordeste 0 -- -- 96
2020-11-24 22:00:00 4.4 5 Nordeste 10 Nordeste 0 -- -- 95
2020-11-24 21:00:00 3.9 6 Nordeste 12 Nordeste 0 -- -- 93
2020-11-24 20:00:00 3.8 6 Nordeste 12 Norte 0 -- -- 94
2020-11-24 19:00:00 5.6 5 Nordeste 8 Norte 0 -- -- 89
2020-11-24 18:00:00 7.9 3 Sudeste 5 Sudeste 0 -- -- 78
2020-11-24 17:00:00 9.3 3 Sur 11 Sudoeste 0 -- -- 71
2020-11-24 16:00:00 10.3 6 Sudoeste 14 Sudoeste 0 -- -- 68
2020-11-24 15:00:00 11.3 6 Sudoeste 11 Sur 0 -- -- 63
2020-11-24 14:00:00 11.4 4 Sudoeste 10 Sur 0 -- -- 61
2020-11-24 13:00:00 10.1 5 Sudoeste 10 Sudoeste 0 -- -- 66
2020-11-24 12:00:00 9 4 Sudoeste 8 Sudoeste 0 -- -- 67
2020-11-24 11:00:00 6.5 0 Calma 4 Nordeste 0 -- -- 74
2020-11-24 10:00:00 3.1 4 Nordeste 10 Norte 0 -- -- 82
2020-11-24 09:00:00 1 6 Nordeste 10 Nordeste 0 -- -- 89
2020-11-24 08:00:00 1.2 5 Nordeste 11 Norte 0 -- -- 85
2020-11-24 07:00:00 1.3 6 Nordeste 11 Norte 0 -- -- 85
2020-11-24 06:00:00 1.8 6 Norte 14 Norte 0 -- -- 80
2020-11-24 05:00:00 2.2 10 Nordeste 15 Norte 0 -- -- 84
2020-11-24 04:00:00 3.1 5 Norte 15 Norte 0 -- -- 82
2020-11-24 03:00:00 2.9 8 Nordeste 14 Norte 0 -- -- 86
2020-11-24 02:00:00 3.4 10 Nordeste 15 Nordeste 0 -- -- 85
2020-11-24 01:00:00 3.1 8 Nordeste 15 Norte 0 -- -- 84
2020-11-24 00:00:00 3.5 11 Nordeste 15 Nordeste 0 -- -- 87
2020-11-23 23:00:00 3.9 8 Nordeste 12 Norte 0 -- -- 88
2020-11-23 22:00:00 4.1 6 Nordeste 15 Norte 0 -- -- 91
2020-11-23 21:00:00 5.2 12 Nordeste 19 Norte 0 -- -- 87
2020-11-23 20:00:00 5.8 10 Nordeste 14 Norte 0 -- -- 86
2020-11-23 19:00:00 6.5 5 Nordeste 8 Nordeste 0 -- -- 89
2020-11-23 18:00:00 9.6 2 Este 6 Sudoeste 0 -- -- 78
2020-11-23 17:00:00 13.3 4 Sudoeste 9 Sudoeste 0 -- -- 58
2020-11-23 16:00:00 14.4 6 Sudoeste 12 Sudoeste 0 -- -- 53
2020-11-23 15:00:00 15.1 3 Sudoeste 9 Sudoeste 0 -- -- 51
2020-11-23 14:00:00 13.8 4 Sudoeste 10 Sur 0 -- -- 56
2020-11-23 13:00:00 13 3 Sudoeste 9 Sudoeste 0 -- -- 58
2020-11-23 12:00:00 11.3 3 Sudoeste 7 Sur 0 -- -- 67
2020-11-23 11:00:00 8.9 0 Calma 6 Norte 0 -- -- 76
2020-11-23 10:00:00 4.9 3 Norte 9 Norte 0 -- -- 87
2020-11-23 09:00:00 2.1 6 Nordeste 11 Norte 0 -- -- 95
2020-11-23 08:00:00 2.2 6 Nordeste 12 Nordeste 0 -- -- 95
2020-11-23 07:00:00 2 5 Nordeste 13 Norte 0 -- -- 94
2020-11-23 06:00:00 2 4 Nordeste 11 Nordeste 0 -- -- 95
2020-11-23 05:00:00 2.3 4 Nordeste 12 Nordeste 0 -- -- 94
2020-11-23 04:00:00 2.8 7 Nordeste 13 Norte 0 -- -- 93
2020-11-23 03:00:00 3.2 10 Nordeste 13 Norte 0 -- -- 90
2020-11-23 02:00:00 2.7 6 Nordeste 9 Nordeste 0 -- -- 94
2020-11-23 01:00:00 3 5 Nordeste 13 Norte 0 -- -- 91
2020-11-23 00:00:00 3.4 7 Nordeste 9 Nordeste 0 -- -- 90
2020-11-22 23:00:00 4.7 5 Nordeste 12 Nordeste 0 -- -- 83
2020-11-22 22:00:00 5.7 5 Nordeste 13 Noroeste 0 -- -- 80
2020-11-22 21:00:00 7.5 7 Norte 13 Norte 0 -- -- 64
2020-11-22 20:00:00 6 5 Norte 8 Nordeste 0 -- -- 79
2020-11-22 19:00:00 7.7 3 Nordeste 14 Oeste 0 -- -- 74
2020-11-22 18:00:00 11.4 6 Oeste 18 Oeste 0 -- -- 56
2020-11-22 17:00:00 14 13 Noroeste 24 Noroeste 0 -- -- 44
2020-11-22 16:00:00 14.9 19 Noroeste 27 Noroeste 0 -- -- 34
2020-11-22 15:00:00 15.1 17 Noroeste 30 Noroeste 0 -- -- 40
2020-11-22 14:00:00 15 19 Oeste 27 Noroeste 0 -- -- 42
2020-11-22 13:00:00 14.4 16 Oeste 26 Oeste 0 -- -- 44
2020-11-22 12:00:00 13.7 12 Oeste 25 Oeste 0 -- -- 46
2020-11-22 11:00:00 9.8 3 Sur 5 Sudoeste 0 -- -- 66
2020-11-22 10:00:00 5.2 0 Calma 8 Norte 0 -- -- 64
2020-11-22 09:00:00 1.7 6 Nordeste 15 Norte 0 -- -- 86
2020-11-22 08:00:00 2.1 9 Norte 15 Norte 0 -- -- 77
2020-11-22 07:00:00 2.3 6 Nordeste 15 Norte 0 -- -- 79
2020-11-22 06:00:00 2.5 10 Norte 15 Norte 0 -- -- 79
2020-11-22 05:00:00 2.3 7 Nordeste 12 Nordeste 0 -- -- 83
2020-11-22 04:00:00 2.8 9 Nordeste 14 Norte 0 -- -- 80
2020-11-22 03:00:00 3.3 8 Nordeste 16 Norte 0 -- -- 80
2020-11-22 02:00:00 3.6 13 Nordeste 17 Norte 0 -- -- 79
2020-11-22 01:00:00 3.7 14 Nordeste 19 Nordeste 0 -- -- 79
2020-11-22 00:00:00 3.5 9 Nordeste 12 Nordeste 0 -- -- 81
2020-11-21 23:00:00 4.1 9 Nordeste 15 Nordeste 0 -- -- 77
2020-11-21 22:00:00 4.5 9 Nordeste 17 Norte 0 -- -- 77
2020-11-21 21:00:00 5 8 Nordeste 15 Norte 0 -- -- 76
2020-11-21 20:00:00 5.6 7 Nordeste 10 Nordeste 0 -- -- 80
2020-11-21 19:00:00 6.8 7 Nordeste 9 Nordeste 0 -- -- 77
2020-11-21 18:00:00 10.9 3 Nordeste 9 Sudoeste 0 -- -- 64
2020-11-21 17:00:00 16.6 6 Sudoeste 12 Sur 0 -- -- 36
2020-11-21 16:00:00 17.3 4 Sur 13 Sudoeste 0 -- -- 32
2020-11-21 15:00:00 17.4 4 Sudoeste 10 Sudeste 0 -- -- 34
2020-11-21 14:00:00 16.5 3 Sudoeste 10 Sur 0 -- -- 39
2020-11-21 13:00:00 15.9 5 Sur 11 Sudeste 0 -- -- 40
2020-11-21 12:00:00 14.4 2 Oeste 7 Sudoeste 0 -- -- 47
2020-11-21 11:00:00 10.2 3 Norte 6 Norte 0 -- -- 72
2020-11-21 10:00:00 6.2 3 Norte 15 Norte 0 -- -- 84
2020-11-21 09:00:00 3 13 Norte 19 Norte 0 -- -- 93
2020-11-21 08:00:00 2.1 15 Norte 19 Norte 0 -- -- 97
2020-11-21 07:00:00 1.8 12 Norte 17 Norte 0 -- -- 98
2020-11-21 06:00:00 1.8 10 Nordeste 15 Nordeste 0 -- -- 99
2020-11-21 05:00:00 1.8 9 Norte 13 Norte 0 -- -- 100
2020-11-21 04:00:00 1.7 5 Nordeste 10 Norte 0 -- -- 99
2020-11-21 03:00:00 2 5 Nordeste 8 Nordeste 0 -- -- 98
2020-11-21 02:00:00 2.7 2 Nordeste 13 Norte 0 -- -- 96
2020-11-21 01:00:00 3.4 8 Nordeste 13 Norte 0 -- -- 95
2020-11-21 00:00:00 3.5 8 Nordeste 14 Norte 0 -- -- 95
2020-11-20 23:00:00 3.5 8 Nordeste 14 Norte 0 -- -- 95
2020-11-20 22:00:00 3.8 9 Nordeste 16 Norte 0 -- -- 94
2020-11-20 21:00:00 3.9 6 Nordeste 12 Nordeste 0 -- -- 95
2020-11-20 20:00:00 4.9 8 Nordeste 13 Norte 0 -- -- 94
2020-11-20 19:00:00 6.1 4 Nordeste 9 Norte 0 -- -- 92
2020-11-20 18:00:00 8.9 2 Sur 10 Sudoeste 0 -- -- 76
2020-11-20 17:00:00 10.8 4 Sudoeste 15 Sur 0 -- -- 70
2020-11-20 16:00:00 11.6 8 Sudoeste 15 Sudoeste 0 -- -- 68
2020-11-20 15:00:00 11.7 6 Sudoeste 14 Sudoeste 0 -- -- 69
2020-11-20 14:00:00 10.5 5 Sudoeste 12 Sur 0 -- -- 75
2020-11-20 13:00:00 8.8 5 Oeste 12 Sudoeste 0 -- -- 81
2020-11-20 12:00:00 7.5 4 Sudeste 9 Sur 0 -- -- 87
2020-11-20 11:00:00 6.5 4 Sudoeste 10 Sur 0 -- -- 89
2020-11-20 10:00:00 6 3 Sudoeste 8 Sudoeste 0 -- -- 93
2020-11-20 09:00:00 5.7 3 Oeste 6 Oeste 0 -- -- 96
2020-11-20 08:00:00 5.8 0 Calma 8 Oeste 0 -- -- 98
2020-11-20 07:00:00 6.1 2 Sudoeste 6 Sur 0 -- -- 99
2020-11-20 06:00:00 6.3 0 Calma 6 Sur 0 -- -- 99
2020-11-20 05:00:00 6.5 2 Sur 5 Sudoeste 0 -- -- 99
2020-11-20 04:00:00 6.7 3 Sudoeste 8 Sudoeste 0 -- -- 98
2020-11-20 03:00:00 7.1 0 Calma 4 Sudoeste 0 -- -- 97
2020-11-20 02:00:00 7.3 0 Calma 2 Oeste 0 -- -- 95
2020-11-20 01:00:00 7.2 0 Calma 4 Sur 0 -- -- 95
2020-11-20 00:00:00 6.9 3 Nordeste 5 Nordeste 0 -- -- 96
2020-11-19 23:00:00 6.4 4 Nordeste 9 Norte 0 -- -- 96
2020-11-19 22:00:00 7 5 Nordeste 11 Nordeste 0 -- -- 95
2020-11-19 21:00:00 7.3 7 Nordeste 14 Norte 0 -- -- 95
2020-11-19 20:00:00 8.1 8 Norte 13 Norte 0 -- -- 93
2020-11-19 19:00:00 9.2 5 Nordeste 8 Nordeste 0 -- -- 93
2020-11-19 18:00:00 13.7 5 Oeste 9 Oeste 0 -- -- 73
2020-11-19 17:00:00 16.5 7 Noroeste 22 Oeste 0 -- -- 65
2020-11-19 16:00:00 17 14 Oeste 24 Oeste 0 -- -- 64
2020-11-19 15:00:00 16.8 7 Sudoeste 14 Sur 0 -- -- 69
2020-11-19 14:00:00 16.5 9 Sudoeste 18 Sudoeste 0 -- -- 68
2020-11-19 13:00:00 15.5 7 Sur 14 Sudoeste 0 -- -- 75
2020-11-19 12:00:00 14.5 6 Sudoeste 11 Sudoeste 0 -- -- 81
2020-11-19 11:00:00 10.6 3 Nordeste 6 Nordeste 0 -- -- 90
2020-11-19 10:00:00 9 0 Calma 11 Nordeste 0 -- -- 95
2020-11-19 09:00:00 6.3 7 Nordeste 14 Norte 0 -- -- 100
2020-11-19 08:00:00 6.5 12 Nordeste 20 Norte 0 -- -- 100
2020-11-19 07:00:00 5.7 5 Nordeste 12 Nordeste 0 -- -- 100
2020-11-19 06:00:00 6.2 8 Norte 11 Nordeste 0 -- -- 100
2020-11-19 05:00:00 7.3 10 Norte 17 Norte 0.2 -- -- 99
2020-11-19 04:00:00 6.4 10 Norte 13 Norte 0 -- -- 100
2020-11-19 03:00:00 5.1 0 Calma 8 Sudoeste 0 -- -- 99
2020-11-19 02:00:00 6 3 Noroeste 10 Norte 0 -- -- 99
2020-11-19 01:00:00 5.8 5 Nordeste 11 Norte 0 -- -- 99
2020-11-19 00:00:00 7 4 Norte 17 Nordeste 0 -- -- 99
2020-11-18 23:00:00 6.1 8 Norte 11 Norte 0 -- -- 99
2020-11-18 22:00:00 6.8 5 Norte 12 Norte 0 -- -- 99
2020-11-18 21:00:00 7.2 7 Nordeste 12 Norte 0 -- -- 99
2020-11-18 20:00:00 7.9 5 Nordeste 14 Norte 0 -- -- 97
2020-11-18 19:00:00 8.4 7 Nordeste 9 Norte 0 -- -- 97
2020-11-18 18:00:00 10.6 2 Norte 5 Sur 0 -- -- 91
2020-11-18 17:00:00 13 3 Sur 10 Sur 0 -- -- 83
2020-11-18 16:00:00 13.1 4 Sur 12 Sudoeste 0 -- -- 83
2020-11-18 15:00:00 11.9 3 Sudeste 10 Sur 0 -- -- 87
2020-11-18 14:00:00 11.2 6 Sudoeste 10 Sudoeste 0 -- -- 88
2020-11-18 13:00:00 10.8 4 Sudoeste 14 Sur 0 -- -- 90
2020-11-18 12:00:00 10.1 5 Sur 13 Sur 0 -- -- 92
2020-11-18 11:00:00 8 2 Nordeste 6 Nordeste 0 -- -- 99
2020-11-18 10:00:00 5.1 3 Nordeste 9 Norte 0 -- -- 100
2020-11-18 09:00:00 3.2 5 Nordeste 9 Nordeste 0 -- -- 100
2020-11-18 08:00:00 3.1 5 Nordeste 8 Nordeste 0 -- -- 100
2020-11-18 07:00:00 3.6 5 Nordeste 9 Norte 0 -- -- 100
2020-11-18 06:00:00 3.3 4 Nordeste 8 Nordeste 0 -- -- 100
2020-11-18 05:00:00 3.4 4 Nordeste 7 Nordeste 0 -- -- 100
2020-11-18 04:00:00 3.9 2 Nordeste 6 Norte 0 -- -- 99
2020-11-18 03:00:00 3.9 5 Nordeste 10 Nordeste 0 -- -- 99
2020-11-18 02:00:00 4 6 Nordeste 10 Nordeste 0 -- -- 98
2020-11-18 01:00:00 3.8 5 Nordeste 12 Norte 0 -- -- 98
2020-11-18 00:00:00 4 6 Nordeste 10 Norte 0 -- -- 98
2020-11-17 23:00:00 4.9 8 Nordeste 13 Norte 0 -- -- 95
2020-11-17 22:00:00 5.4 8 Nordeste 14 Norte 0 -- -- 94
2020-11-17 21:00:00 6 8 Nordeste 16 Norte 0 -- -- 93
2020-11-17 20:00:00 6.8 7 Nordeste 13 Nordeste 0 -- -- 92
2020-11-17 19:00:00 7.9 7 Nordeste 12 Norte 0 -- -- 92
2020-11-17 18:00:00 11.8 3 Este 9 Sudeste 0 -- -- 76
2020-11-17 17:00:00 14 4 Sur 13 Sur 0 -- -- 67
2020-11-17 16:00:00 14.4 5 Sur 12 Sur 0 -- -- 67
2020-11-17 15:00:00 14.5 8 Sur 15 Sur 0 -- -- 67
2020-11-17 14:00:00 14.4 4 Sudoeste 15 Sur 0 -- -- 70
2020-11-17 13:00:00 13.7 4 Sur 13 Sur 0 -- -- 73
2020-11-17 12:00:00 12.5 4 Sur 9 Sur 0 -- -- 78
2020-11-17 11:00:00 10.1 0 Calma 9 Norte 0 -- -- 89
2020-11-17 10:00:00 5.9 6 Norte 12 Norte 0 -- -- 100
2020-11-17 09:00:00 3 6 Nordeste 12 Norte 0 -- -- 100
2020-11-17 08:00:00 2.8 8 Nordeste 10 Norte 0 -- -- 100
2020-11-17 07:00:00 3.1 8 Nordeste 14 Norte 0 -- -- 100
2020-11-17 06:00:00 3.3 7 Nordeste 15 Norte 0 -- -- 100
2020-11-17 05:00:00 3.3 8 Nordeste 14 Norte 0 -- -- 99
2020-11-17 04:00:00 3.5 10 Nordeste 13 Norte 0 -- -- 100
2020-11-17 03:00:00 3.7 8 Nordeste 14 Norte 0 -- -- 99
2020-11-17 02:00:00 3.8 8 Nordeste 14 Nordeste 0 -- -- 99
2020-11-17 01:00:00 4.3 8 Nordeste 17 Norte 0 -- -- 99
2020-11-17 00:00:00 4 9 Nordeste 12 Nordeste 0 -- -- 98
2020-11-16 23:00:00 4.6 7 Nordeste 11 Norte 0 -- -- 98
2020-11-16 22:00:00 5.1 6 Nordeste 13 Norte 0 -- -- 97
2020-11-16 21:00:00 5.7 10 Norte 15 Norte 0 -- -- 96
2020-11-16 20:00:00 6.2 9 Nordeste 11 Norte 0 -- -- 96
2020-11-16 19:00:00 7.2 4 Nordeste 6 Nordeste 0 -- -- 95
2020-11-16 18:00:00 10.1 0 Calma 6 Sudoeste 0 -- -- 84
2020-11-16 17:00:00 12.5 3 Sudoeste 9 Oeste 0 -- -- 69
2020-11-16 16:00:00 13.1 4 Sur 11 Sur 0 -- -- 67
2020-11-16 15:00:00 13.6 5 Sudoeste 12 Sudoeste 0 -- -- 67
2020-11-16 14:00:00 13.2 5 Sudoeste 14 Sudoeste 0 -- -- 67
2020-11-16 13:00:00 12.4 4 Sudoeste 11 Sur 0 -- -- 72
2020-11-16 12:00:00 11 3 Sudeste 9 Sudeste 0 -- -- 78
2020-11-16 11:00:00 8.8 5 Este 9 Este 0 -- -- 84
2020-11-16 10:00:00 7 10 Norte 15 Norte 0 -- -- 85
2020-11-16 09:00:00 5 2 Norte 8 Norte 0 -- -- 97
2020-11-16 08:00:00 5.9 5 Norte 19 Norte 0 -- -- 93
2020-11-16 07:00:00 6.5 11 Norte 17 Norte 0 -- -- 90
2020-11-16 06:00:00 7.2 13 Norte 21 Noroeste 0 -- -- 89
2020-11-16 05:00:00 7.6 13 Nordeste 23 Nordeste 0 -- -- 90
2020-11-16 04:00:00 8 11 Este 18 Nordeste 0 -- -- 92
2020-11-16 03:00:00 8.2 11 Este 24 Nordeste 0 -- -- 91
2020-11-16 02:00:00 7.9 8 Sur 16 Sur 0 -- -- 92
2020-11-16 01:00:00 8.7 5 Norte 36 Noroeste 0 -- -- 92
2020-11-16 00:00:00 9.4 23 Norte 36 Norte 0 -- -- 94
2020-11-15 23:00:00 9.6 17 Noroeste 30 Noroeste 0 -- -- 97
2020-11-15 22:00:00 9.5 12 Noroeste 22 Noroeste 0.2 -- -- 98
2020-11-15 21:00:00 9.7 17 Noroeste 28 Noroeste 0 -- -- 96
2020-11-15 20:00:00 10.4 10 Noroeste 24 Noroeste 0.4 -- -- 97
2020-11-15 19:00:00 11.2 12 Noroeste 23 Noroeste 1 -- -- 97
2020-11-15 18:00:00 11.8 15 Noroeste 24 Oeste 0.2 -- -- 95
2020-11-15 17:00:00 12.3 19 Noroeste 41 Oeste 0 -- -- 96
2020-11-15 16:00:00 12.3 13 Noroeste 33 Noroeste 0.6 -- -- 98
2020-11-15 15:00:00 12.8 23 Oeste 42 Oeste 2 -- -- 97
2020-11-15 14:00:00 12.5 15 Oeste 27 Oeste 2.6 -- -- 98
2020-11-15 13:00:00 12.6 12 Noroeste 20 Oeste 0.6 -- -- 96
2020-11-15 12:00:00 12.1 0 Calma 5 Sudeste 0 -- -- 99
2020-11-15 11:00:00 11.3 2 Sudeste 8 Sur 0 -- -- 100
2020-11-15 10:00:00 10.3 0 Calma 6 Norte 0 -- -- 100
2020-11-15 09:00:00 9.6 0 Calma 7 Norte 0 -- -- 100
2020-11-15 08:00:00 9.4 0 Calma 8 Nordeste 0 -- -- 100
2020-11-15 07:00:00 9.6 5 Nordeste 8 Norte 0.4 -- -- 100
2020-11-15 06:00:00 9.6 4 Norte 6 Nordeste 0 -- -- 100
2020-11-15 05:00:00 9.7 4 Nordeste 6 Nordeste 0 -- -- 100
2020-11-15 04:00:00 9.6 0 Calma 5 Sudeste 0 -- -- 100
2020-11-15 03:00:00 9.9 3 Oeste 9 Sudoeste 0 -- -- 100
2020-11-15 02:00:00 9.8 2 Nordeste 6 Norte 0 -- -- 100
2020-11-15 01:00:00 9.7 2 Norte 5 Nordeste 0 -- -- 100
2020-11-15 00:00:00 9.6 0 Calma 6 Sur 0 -- -- 100
2020-11-14 23:00:00 9.5 2 Sudeste 7 Este 0 -- -- 99
2020-11-14 22:00:00 9.4 4 Este 8 Este 0 -- -- 99
2020-11-14 21:00:00 9.4 2 Nordeste 7 Nordeste 0 -- -- 99
2020-11-14 20:00:00 9.2 4 Nordeste 7 Nordeste 0 -- -- 99
2020-11-14 19:00:00 9 4 Nordeste 9 Nordeste 0 -- -- 98
2020-11-14 18:00:00 8.9 4 Este 8 Este 0 -- -- 98
2020-11-14 17:00:00 9 6 Este 10 Este 0 -- -- 96
2020-11-14 16:00:00 8.9 3 Sudeste 7 Sur 0 -- -- 96
2020-11-14 15:00:00 8.9 4 Sudeste 12 Sudeste 0 -- -- 96
2020-11-14 14:00:00 8.7 5 Sur 12 Sudoeste 0 -- -- 94
2020-11-14 13:00:00 9 5 Sur 12 Sur 0 -- -- 91
2020-11-14 12:00:00 8.4 5 Sudeste 12 Este 0 -- -- 94
2020-11-14 11:00:00 8.3 2 Sudeste 5 Sudeste 0 -- -- 91
2020-11-14 10:00:00 7.4 3 Sur 7 Sur 0 -- -- 95
2020-11-14 09:00:00 6.8 0 Calma 10 Sur 0 -- -- 97
2020-11-14 08:00:00 7 3 Sur 7 Sur 0 -- -- 97
2020-11-14 07:00:00 6.9 3 Sudeste 8 Sudeste 0 -- -- 97
2020-11-14 06:00:00 6.8 3 Sudeste 8 Sudeste 0 -- -- 97
2020-11-14 05:00:00 6.7 0 Calma 9 Sudeste 0 -- -- 98
2020-11-14 04:00:00 6.7 5 Sudeste 10 Sudeste 0 -- -- 98
2020-11-14 03:00:00 6.6 2 Sudeste 8 Sudeste 0 -- -- 98
2020-11-14 02:00:00 7 2 Sur 13 Sur 0 -- -- 98
2020-11-14 01:00:00 7.3 3 Sur 10 Sudoeste 0 -- -- 97
2020-11-14 00:00:00 7.8 3 Sudoeste 12 Sudeste 0 -- -- 96
2020-11-13 23:00:00 8 0 Calma 9 Sur 0 -- -- 95
2020-11-13 22:00:00 8.1 3 Sudoeste 6 Oeste 0 -- -- 92
2020-11-13 21:00:00 8.5 2 Norte 6 Nordeste 0 -- -- 90
2020-11-13 20:00:00 8.5 7 Nordeste 9 Nordeste 0 -- -- 90
2020-11-13 19:00:00 8.5 6 Nordeste 8 Nordeste 0 -- -- 88
2020-11-13 18:00:00 8.7 5 Nordeste 8 Nordeste 0 -- -- 88
2020-11-13 17:00:00 9.4 4 Sudoeste 15 Oeste 0 -- -- 84
2020-11-13 16:00:00 9.9 5 Sudoeste 13 Sudoeste 0 -- -- 84
2020-11-13 15:00:00 10.5 5 Sudoeste 12 Sudoeste 0 -- -- 84
2020-11-13 14:00:00 10.2 4 Sudoeste 13 Sudoeste 0 -- -- 85
2020-11-13 13:00:00 10 6 Sudoeste 16 Oeste 0 -- -- 88
2020-11-13 12:00:00 10 5 Sudoeste 10 Sudoeste 0 -- -- 89
2020-11-13 11:00:00 8.4 3 Sudeste 7 Este 0 -- -- 96
2020-11-13 10:00:00 6.3 4 Norte 8 Norte 0 -- -- 100
2020-11-13 09:00:00 4.1 5 Nordeste 7 Norte 0 -- -- 100
2020-11-13 08:00:00 4.2 4 Nordeste 5 Nordeste 0 -- -- 100
2020-11-13 07:00:00 5.3 3 Norte 11 Norte 0 -- -- 100
2020-11-13 06:00:00 5.9 7 Nordeste 11 Norte 0 -- -- 100
2020-11-13 05:00:00 5.2 6 Nordeste 9 Norte 0 -- -- 100
2020-11-13 04:00:00 5.4 3 Nordeste 10 Norte 0 -- -- 100
2020-11-13 03:00:00 5.7 2 Nordeste 9 Nordeste 0 -- -- 100
2020-11-13 02:00:00 5.9 3 Nordeste 8 Norte 0 -- -- 100
2020-11-13 01:00:00 6.3 3 Norte 6 Norte 0 -- -- 100
2020-11-13 00:00:00 6.6 0 Calma 4 Norte 0 -- -- 99
2020-11-12 23:00:00 7.5 4 Norte 8 Norte 0 -- -- 99
2020-11-12 22:00:00 7.6 4 Nordeste 7 Nordeste 0 -- -- 99
2020-11-12 21:00:00 7.5 0 Calma 6 Nordeste 0 -- -- 97
2020-11-12 20:00:00 7.2 3 Nordeste 5 Nordeste 0 -- -- 96
2020-11-12 19:00:00 7.6 3 Este 5 Este 0 -- -- 92
2020-11-12 18:00:00 10 3 Sudoeste 9 Sudoeste 0 -- -- 84
2020-11-12 17:00:00 12.1 5 Sudoeste 13 Sur 0 -- -- 75
2020-11-12 16:00:00 13.4 5 Sudeste 15 Sur 0 -- -- 71
2020-11-12 15:00:00 12.8 4 Sur 12 Sur 0 -- -- 75
2020-11-12 14:00:00 11.2 4 Sudoeste 10 Sudoeste 0 -- -- 80
2020-11-12 13:00:00 9.1 5 Sudeste 12 Sur 0 -- -- 89
2020-11-12 12:00:00 8.5 4 Sudeste 13 Sudeste 0 -- -- 91
2020-11-12 11:00:00 8 5 Sudeste 12 Sudeste 0 -- -- 93
2020-11-12 10:00:00 7.6 6 Sudeste 12 Sudeste 0 -- -- 96
2020-11-12 09:00:00 7.2 4 Este 9 Sudeste 0 -- -- 98
2020-11-12 08:00:00 7.2 2 Sur 6 Sudeste 0 -- -- 99
2020-11-12 07:00:00 7.2 0 Calma 8 Sudeste 0 -- -- 98
2020-11-12 06:00:00 7.2 2 Sudeste 9 Sudeste 0 -- -- 98
2020-11-12 05:00:00 7.3 2 Sur 4 Sur 0 -- -- 98
2020-11-12 04:00:00 7.4 0 Calma 3 Sur 0 -- -- 98
2020-11-12 03:00:00 7.4 2 Sudeste 6 Sudeste 0 -- -- 98
2020-11-12 02:00:00 7.6 0 Calma 5 Sudeste 0 -- -- 97
2020-11-12 01:00:00 7.6 0 Calma 3 Este 0 -- -- 97
2020-11-12 00:00:00 7.6 2 Este 5 Sudeste 0 -- -- 97
2020-11-11 23:00:00 7.6 3 Sudeste 7 Sudeste 0.2 -- -- 97
2020-11-11 22:00:00 7.8 5 Sudeste 8 Sudeste 0 -- -- 96
2020-11-11 21:00:00 7.8 6 Sudeste 12 Este 0 -- -- 95
2020-11-11 20:00:00 7.8 4 Sudeste 9 Nordeste 0 -- -- 93
2020-11-11 19:00:00 8 6 Este 12 Este 0 -- -- 92
2020-11-11 18:00:00 8.2 5 Este 10 Nordeste 0 -- -- 91
2020-11-11 17:00:00 8.5 3 Este 12 Sudeste 0 -- -- 88
2020-11-11 16:00:00 8.7 4 Este 13 Nordeste 0 -- -- 87
2020-11-11 15:00:00 8.2 9 Este 13 Nordeste 0 -- -- 90
2020-11-11 14:00:00 7.7 4 Sudeste 8 Sudeste 0 -- -- 92
2020-11-11 13:00:00 6.8 4 Sur 9 Sudeste 0 -- -- 98
2020-11-11 12:00:00 6.5 3 Sur 11 Sudeste 0 -- -- 99
2020-11-11 11:00:00 6.2 4 Sudeste 12 Sudeste 0 -- -- 98
2020-11-11 10:00:00 6 5 Sudeste 11 Sudeste 0 -- -- 97
2020-11-11 09:00:00 6 4 Sudeste 9 Sudeste 0 -- -- 94
2020-11-11 08:00:00 6 4 Sudeste 9 Sudeste 0 -- -- 93
2020-11-11 07:00:00 6.1 3 Este 9 Este 0 -- -- 93
2020-11-11 06:00:00 6.1 4 Sudeste 8 Sudeste 0 -- -- 93
2020-11-11 05:00:00 6.1 4 Sudeste 9 Sudeste 0 -- -- 93
2020-11-11 04:00:00 6.3 4 Sudeste 7 Sudeste 0 -- -- 94
2020-11-11 03:00:00 6.3 3 Sur 7 Sudeste 0 -- -- 93
2020-11-11 02:00:00 6.3 4 Sudeste 9 Sudeste 0 -- -- 91
2020-11-11 01:00:00 6.3 2 Sudeste 6 Sudeste 0 -- -- 91
2020-11-11 00:00:00 6 5 Norte 9 Nordeste 0 -- -- 90
2020-11-10 23:00:00 6 5 Este 9 Este 0 -- -- 91
2020-11-10 22:00:00 6.2 4 Sudeste 12 Sudeste 0 -- -- 91
2020-11-10 21:00:00 6.8 3 Sudeste 6 Este 0 -- -- 90
2020-11-10 20:00:00 7.1 0 Calma 8 Sudeste 0 -- -- 88
2020-11-10 19:00:00 7.4 4 Sudeste 11 Sur 0 -- -- 88
2020-11-10 18:00:00 7.8 5 Sudeste 10 Sur 0 -- -- 87
2020-11-10 17:00:00 8.5 4 Sur 10 Sur 0 -- -- 86
2020-11-10 16:00:00 9.1 4 Sudoeste 13 Sudoeste 0 -- -- 85
2020-11-10 15:00:00 10.5 7 Sudoeste 15 Sudoeste 0 -- -- 80
2020-11-10 14:00:00 11.1 7 Sudoeste 14 Sudoeste 0 -- -- 78
2020-11-10 13:00:00 10.6 5 Sudoeste 15 Oeste 0 -- -- 79
2020-11-10 12:00:00 10.8 8 Sudoeste 13 Sudoeste 0 -- -- 81
2020-11-10 11:00:00 8.1 3 Sudoeste 6 Sudoeste 0 -- -- 88
2020-11-10 10:00:00 5.1 2 Sur 9 Nordeste 0 -- -- 100
2020-11-10 09:00:00 2.9 7 Nordeste 11 Norte 0 -- -- 100
2020-11-10 08:00:00 3 4 Nordeste 10 Norte 0 -- -- 100
2020-11-10 07:00:00 3.7 7 Norte 11 Norte 0 -- -- 100
2020-11-10 06:00:00 4.4 5 Norte 21 Norte 0 -- -- 100
2020-11-10 05:00:00 5.6 12 Norte 27 Noroeste 0 -- -- 99
2020-11-10 04:00:00 6 15 Noroeste 22 Oeste 0 -- -- 99
2020-11-10 03:00:00 6.3 3 Norte 17 Norte 0 -- -- 96
2020-11-10 02:00:00 6.9 13 Noroeste 22 Noroeste 0 -- -- 94
2020-11-10 01:00:00 7.5 9 Norte 21 Noroeste 0 -- -- 94
2020-11-10 00:00:00 7.4 7 Norte 18 Norte 0 -- -- 94
2020-11-09 23:00:00 7.3 2 Noroeste 9 Oeste 0 -- -- 95
2020-11-09 22:00:00 8 4 Norte 13 Norte 0 -- -- 94
2020-11-09 21:00:00 8.4 3 Norte 11 Noroeste 0 -- -- 93
2020-11-09 20:00:00 9.3 0 Calma 15 Oeste 0 -- -- 92
2020-11-09 19:00:00 9.8 10 Noroeste 15 Noroeste 0 -- -- 86
2020-11-09 18:00:00 10.3 11 Noroeste 16 Noroeste 0 -- -- 81
2020-11-09 17:00:00 11.1 4 Norte 22 Noroeste 0 -- -- 80
2020-11-09 16:00:00 13.1 14 Oeste 26 Oeste 0 -- -- 69
2020-11-09 15:00:00 12.2 6 Sudoeste 14 Sudoeste 0 -- -- 80
2020-11-09 14:00:00 12 4 Sudoeste 12 Sur 0 -- -- 81
2020-11-09 13:00:00 10.5 3 Sur 11 Sudeste 0 -- -- 86
2020-11-09 12:00:00 10.9 3 Sur 8 Sur 0 -- -- 82
2020-11-09 11:00:00 9.3 5 Sur 10 Sur 0 -- -- 89
2020-11-09 10:00:00 8.6 4 Sudeste 10 Sudeste 0 -- -- 97
2020-11-09 09:00:00 7.7 3 Sur 6 Sur 0 -- -- 99
2020-11-09 08:00:00 7.5 3 Este 8 Este 0 -- -- 100
2020-11-09 07:00:00 7.5 6 Este 9 Este 0 -- -- 100
2020-11-09 06:00:00 7.7 4 Sudeste 8 Sudeste 0 -- -- 100
2020-11-09 05:00:00 7.7 0 Calma 5 Sudoeste 0 -- -- 100
2020-11-09 04:00:00 7.7 3 Sudoeste 8 Sur 0 -- -- 100
2020-11-09 03:00:00 7.8 4 Sudoeste 15 Sur 0 -- -- 100
2020-11-09 02:00:00 8 7 Sudoeste 16 Sudoeste 0 -- -- 100
2020-11-09 01:00:00 8.5 4 Sudoeste 12 Oeste 0.2 -- -- 100
2020-11-09 00:00:00 8.5 4 Sudoeste 16 Sudoeste 0 -- -- 99
2020-11-08 23:00:00 8.6 3 Sudoeste 19 Sudoeste 0 -- -- 99
2020-11-08 22:00:00 8.8 10 Sudoeste 26 Sudoeste 0 -- -- 99
2020-11-08 21:00:00 9.3 4 Sudoeste 17 Sudoeste 0 -- -- 99
2020-11-08 20:00:00 9.1 0 Calma 10 Sur 0 -- -- 99
2020-11-08 19:00:00 9 3 Sur 11 Sur 0 -- -- 98
2020-11-08 18:00:00 9.2 5 Sudoeste 20 Sudoeste 0 -- -- 96
2020-11-08 17:00:00 10 6 Sur 20 Sur 0.2 -- -- 94
2020-11-08 16:00:00 10.5 10 Sur 26 Sur 0 -- -- 90
2020-11-08 15:00:00 11.6 7 Sur 18 Sur 0 -- -- 90
2020-11-08 14:00:00 9.9 8 Sudoeste 21 Sudoeste 0 -- -- 95
2020-11-08 13:00:00 9.4 5 Sur 19 Sur 0 -- -- 97
2020-11-08 12:00:00 9.1 5 Sudoeste 22 Sur 0.6 -- -- 99
2020-11-08 11:00:00 8.6 5 Sur 22 Sudoeste 0.4 -- -- 99
2020-11-08 10:00:00 8.6 11 Sudoeste 29 Sudoeste 0 -- -- 98
2020-11-08 09:00:00 8.6 9 Sudoeste 19 Sudoeste 0 -- -- 99
2020-11-08 08:00:00 8.5 7 Sur 17 Sur 0 -- -- 99
2020-11-08 07:00:00 8.5 5 Sur 21 Sur 0 -- -- 99
2020-11-08 06:00:00 8.4 7 Sur 23 Sudoeste 0 -- -- 99
2020-11-08 05:00:00 8.3 7 Sur 21 Sudoeste 0.2 -- -- 98
2020-11-08 04:00:00 8.5 6 Sur 33 Sudoeste 0 -- -- 96
2020-11-08 03:00:00 9.1 12 Sudoeste 26 Sudoeste 0 -- -- 94
2020-11-08 02:00:00 9.4 6 Sur 18 Sudoeste 0 -- -- 93
2020-11-08 01:00:00 9.3 8 Sur 16 Sur 0 -- -- 94
2020-11-08 00:00:00 9.1 2 Sudeste 11 Sur 0 -- -- 94
2020-11-07 23:00:00 9 6 Sudoeste 17 Sur 0 -- -- 94
2020-11-07 22:00:00 9.1 2 Este 8 Sur 0 -- -- 92
2020-11-07 21:00:00 9 3 Nordeste 12 Sudoeste 0 -- -- 92
2020-11-07 20:00:00 9 4 Oeste 12 Sudoeste 0 -- -- 90
2020-11-07 19:00:00 9.5 7 Sudoeste 21 Sudoeste 0 -- -- 87
2020-11-07 18:00:00 10.5 11 Sudoeste 24 Sudoeste 0 -- -- 82
2020-11-07 17:00:00 11.9 10 Sudoeste 25 Oeste 0 -- -- 74
2020-11-07 16:00:00 12.5 14 Oeste 26 Oeste 0 -- -- 69
2020-11-07 15:00:00 13.9 13 Sudoeste 30 Sudoeste 0 -- -- 66
2020-11-07 14:00:00 14 14 Sudoeste 27 Sudoeste 0 -- -- 66
2020-11-07 13:00:00 11.5 4 Nordeste 12 Nordeste 0 -- -- 84
2020-11-07 12:00:00 11 6 Sur 11 Sur 0 -- -- 85
2020-11-07 11:00:00 11 5 Sudeste 10 Sudeste 0 -- -- 85
2020-11-07 10:00:00 9.8 5 Sur 14 Sudoeste 0 -- -- 96
2020-11-07 09:00:00 8.9 0 Calma 9 Sudoeste 0 -- -- 100
2020-11-07 08:00:00 8.8 5 Sudoeste 17 Sudoeste 0 -- -- 100
2020-11-07 07:00:00 8.7 9 Sudoeste 21 Sudoeste 0.2 -- -- 100
2020-11-07 06:00:00 9.1 7 Sudoeste 15 Sur 0 -- -- 100
2020-11-07 05:00:00 9 3 Sur 12 Sur 2.2 -- -- 99
2020-11-07 04:00:00 9 4 Sudoeste 15 Sur 0.8 -- -- 99
2020-11-07 03:00:00 9 6 Sudoeste 18 Sur 0.2 -- -- 98
2020-11-07 02:00:00 9.1 9 Sur 19 Sur 0.4 -- -- 98
2020-11-07 01:00:00 9.4 9 Sur 21 Sudeste 0.4 -- -- 97
2020-11-07 00:00:00 9.5 10 Sudeste 21 Sudeste 0.4 -- -- 97
2020-11-06 23:00:00 9.7 7 Sur 50 Sudoeste 0.6 -- -- 95
2020-11-06 22:00:00 11.2 10 Sur 30 Sur 0.4 -- -- 90
2020-11-06 21:00:00 12.4 14 Sur 37 Sur 0 -- -- 86
2020-11-06 20:00:00 12.6 10 Sur 33 Sudeste 0 -- -- 85
2020-11-06 19:00:00 12.2 11 Sudeste 21 Sudeste 0 -- -- 89
2020-11-06 18:00:00 12 9 Sudeste 26 Este 0 -- -- 89
2020-11-06 17:00:00 12.5 13 Sudeste 32 Sudeste 0 -- -- 87
2020-11-06 16:00:00 12.4 18 Sudeste 33 Sudeste 0.4 -- -- 87
2020-11-06 15:00:00 11.6 14 Sudeste 30 Este 0.2 -- -- 93
2020-11-06 14:00:00 12.1 15 Sudeste 33 Sudeste 0.6 -- -- 88
2020-11-06 13:00:00 12.5 18 Sudeste 34 Sudeste 0 -- -- 83
2020-11-06 12:00:00 11.8 10 Sudeste 26 Sudeste 0.2 -- -- 87
2020-11-06 11:00:00 10.5 13 Este 19 Este 0.2 -- -- 93
2020-11-06 10:00:00 10 13 Este 24 Este 0 -- -- 92
2020-11-06 09:00:00 9.2 10 Este 18 Este 0 -- -- 97
2020-11-06 08:00:00 8.6 10 Este 17 Este 0 -- -- 98
2020-11-06 07:00:00 8.6 6 Sudeste 18 Sur 0 -- -- 98
2020-11-06 06:00:00 8.6 7 Sur 39 Sudeste 0.2 -- -- 97
2020-11-06 05:00:00 8.9 15 Sudeste 34 Sudeste 0.2 -- -- 96
2020-11-06 04:00:00 8.9 15 Este 24 Sudeste 0 -- -- 96
2020-11-06 03:00:00 8.7 10 Sudeste 28 Sudeste 0 -- -- 97
2020-11-06 02:00:00 8.7 12 Sudeste 29 Sudeste 0 -- -- 97
2020-11-06 01:00:00 8.7 14 Sur 39 Sudeste 0.4 -- -- 97
2020-11-06 00:00:00 8.7 19 Sudeste 40 Sudeste 0.8 -- -- 97
2020-11-05 23:00:00 8.7 18 Sudeste 36 Sudeste 2 -- -- 96
2020-11-05 22:00:00 9 17 Sudeste 35 Sudeste 0.8 -- -- 94
2020-11-05 21:00:00 9.6 18 Sudeste 36 Sudeste 0 -- -- 88
2020-11-05 20:00:00 10.1 18 Sudeste 38 Sudeste 0 -- -- 86
2020-11-05 19:00:00 10.4 18 Sudeste 34 Sudeste 0 -- -- 83
2020-11-05 18:00:00 10.9 19 Sudeste 39 Sudeste 0 -- -- 77
2020-11-05 17:00:00 11.1 20 Sudeste 40 Sur 0 -- -- 76
2020-11-05 16:00:00 11 19 Sudeste 42 Sudeste 0 -- -- 74
2020-11-05 15:00:00 10.9 20 Sudeste 42 Sudeste 0 -- -- 74
2020-11-05 14:00:00 10.6 23 Sudeste 44 Sudeste 0 -- -- 74
2020-11-05 13:00:00 11.1 21 Sudeste 44 Sudeste 0 -- -- 73
2020-11-05 12:00:00 10.1 23 Sudeste 48 Sudeste 0 -- -- 76
2020-11-05 11:00:00 9.8 26 Sudeste 55 Sudeste 0 -- -- 75
2020-11-05 10:00:00 9.9 24 Sudeste 46 Sudeste 0 -- -- 75
2020-11-05 09:00:00 8.4 26 Sudeste 49 Sudeste 0.2 -- -- 78
2020-11-05 08:00:00 7.7 13 Sudeste 32 Sudeste 0 -- -- 81
2020-11-05 07:00:00 7.7 17 Sudeste 34 Sudeste 0 -- -- 81
2020-11-05 06:00:00 7.8 20 Sudeste 42 Sudeste 0 -- -- 79
2020-11-05 05:00:00 7.6 25 Sudeste 53 Sudeste 0 -- -- 78
2020-11-05 04:00:00 7.4 20 Sudeste 36 Este 0 -- -- 76
2020-11-05 03:00:00 7.3 21 Sudeste 38 Sudeste 0 -- -- 72
2020-11-05 02:00:00 7.1 21 Este 42 Sudeste 0 -- -- 72
2020-11-05 01:00:00 6.6 23 Sudeste 36 Sudeste 0 -- -- 71
2020-11-05 00:00:00 5.2 15 Este 27 Este 0.2 -- -- 83
2020-11-04 23:00:00 5.1 6 Este 21 Este 0 -- -- 73
2020-11-04 22:00:00 5.1 11 Sudeste 35 Sudeste 0 -- -- 72
2020-11-04 21:00:00 5.3 14 Este 31 Nordeste 0 -- -- 72
2020-11-04 20:00:00 5.4 20 Este 31 Este 0 -- -- 70
2020-11-04 19:00:00 5 12 Este 34 Este 0 -- -- 74
2020-11-04 18:00:00 6 26 Este 44 Nordeste 0 -- -- 70
2020-11-04 17:00:00 7.2 28 Este 45 Nordeste 0 -- -- 64
2020-11-04 16:00:00 7.9 26 Nordeste 40 Este 0 -- -- 63
2020-11-04 15:00:00 8.2 24 Nordeste 35 Nordeste 0 -- -- 62
2020-11-04 14:00:00 8.4 26 Sudeste 37 Sudeste 0 -- -- 57
2020-11-04 13:00:00 8.4 24 Este 35 Sudeste 0 -- -- 56
2020-11-04 12:00:00 8.4 10 Sudeste 23 Sudeste 0 -- -- 60
2020-11-04 11:00:00 6.6 3 Sur 9 Sudoeste 0 -- -- 69
2020-11-04 10:00:00 4.4 4 Oeste 8 Oeste 0 -- -- 76
2020-11-04 09:00:00 1.4 3 Oeste 8 Nordeste 0 -- -- 87
2020-11-04 08:00:00 0.1 3 Oeste 8 Oeste 0 -- -- 88
2020-11-04 07:00:00 0.1 3 Norte 8 Norte 0 -- -- 88
2020-11-04 06:00:00 1 2 Nordeste 8 Nordeste 0 -- -- 91
2020-11-04 05:00:00 2.5 4 Este 7 Este 0 -- -- 90
2020-11-04 04:00:00 3 4 Norte 14 Norte 0 -- -- 86
2020-11-04 03:00:00 3.1 8 Norte 18 Norte 0 -- -- 87
2020-11-04 02:00:00 3.2 10 Norte 19 Norte 0 -- -- 86
2020-11-04 01:00:00 2.8 9 Norte 17 Norte 0 -- -- 88
2020-11-04 00:00:00 1.8 9 Norte 18 Norte 0 -- -- 84
2020-11-03 23:00:00 3.2 11 Norte 16 Norte 0 -- -- 75
2020-11-03 22:00:00 3.4 12 Norte 24 Norte 0 -- -- 76
2020-11-03 21:00:00 4.3 18 Norte 33 Norte 0 -- -- 76
2020-11-03 20:00:00 4.7 13 Norte 21 Norte 0 -- -- 75
2020-11-03 19:00:00 5.4 14 Norte 25 Nordeste 0 -- -- 73
2020-11-03 18:00:00 7.1 17 Nordeste 25 Nordeste 0 -- -- 70
2020-11-03 17:00:00 9 18 Nordeste 34 Nordeste 0 -- -- 65
2020-11-03 16:00:00 10.4 14 Nordeste 29 Nordeste 0 -- -- 64
2020-11-03 15:00:00 9.9 22 Nordeste 31 Nordeste 0 -- -- 64
2020-11-03 14:00:00 10.7 17 Nordeste 26 Nordeste 0 -- -- 61
2020-11-03 13:00:00 10.2 18 Nordeste 35 Este 0 -- -- 63
2020-11-03 12:00:00 9.5 22 Este 35 Nordeste 0 -- -- 67
2020-11-03 11:00:00 9.2 14 Norte 21 Nordeste 0 -- -- 69
2020-11-03 10:00:00 7.2 0 Calma 7 Oeste 0 -- -- 85
2020-11-03 09:00:00 2.9 4 Oeste 11 Nordeste 0 -- -- 93
2020-11-03 08:00:00 2.8 6 Nordeste 19 Norte 0 -- -- 92
2020-11-03 07:00:00 2.5 9 Nordeste 14 Nordeste 0 -- -- 94
2020-11-03 06:00:00 2.5 6 Nordeste 11 Nordeste 0 -- -- 96
2020-11-03 05:00:00 3.6 5 Norte 23 Noroeste 0 -- -- 92
2020-11-03 04:00:00 4.3 8 Norte 37 Noroeste 0 -- -- 95
2020-11-03 03:00:00 5.2 19 Noroeste 36 Noroeste 0 -- -- 96
2020-11-03 02:00:00 6.2 24 Noroeste 36 Noroeste 0 -- -- 96
2020-11-03 01:00:00 7.3 17 Noroeste 28 Noroeste 0 -- -- 95
2020-11-03 00:00:00 8.5 8 Noroeste 23 Noroeste 0 -- -- 98
2020-11-02 23:00:00 8.7 13 Noroeste 23 Oeste 0 -- -- 95
2020-11-02 22:00:00 9.6 11 Noroeste 26 Oeste 0 -- -- 96
2020-11-02 21:00:00 9.8 7 Oeste 31 Oeste 0 -- -- 98
2020-11-02 20:00:00 9.6 27 Oeste 40 Noroeste 0 -- -- 97
2020-11-02 19:00:00 11.1 20 Noroeste 38 Noroeste 0.2 -- -- 97
2020-11-02 18:00:00 13.4 10 Oeste 22 Noroeste 0 -- -- 99
2020-11-02 17:00:00 13.9 2 Nordeste 8 Norte 1 -- -- 100
2020-11-02 16:00:00 13.5 6 Norte 12 Norte 0.4 -- -- 98
2020-11-02 15:00:00 14.7 4 Este 16 Oeste 0.2 -- -- 90
2020-11-02 14:00:00 15.2 3 Sudeste 15 Sur 0 -- -- 85
2020-11-02 13:00:00 15 5 Sur 16 Sur 0 -- -- 84
2020-11-02 12:00:00 14.2 6 Sur 15 Sur 0 -- -- 91
2020-11-02 11:00:00 13.9 7 Sudoeste 15 Oeste 0 -- -- 92
2020-11-02 10:00:00 12.5 4 Sudoeste 8 Sudoeste 0 -- -- 100
2020-11-02 09:00:00 11.1 4 Sudoeste 11 Sudoeste 0 -- -- 100
2020-11-02 08:00:00 10.1 3 Sudoeste 6 Sudoeste 0.2 -- -- 100
2020-11-02 07:00:00 10.1 3 Oeste 4 Oeste 0.2 -- -- 100
2020-11-02 06:00:00 10 2 Oeste 4 Sudoeste 0 -- -- 100
2020-11-02 05:00:00 10.4 0 Calma 3 Oeste 0.2 -- -- 100
2020-11-02 04:00:00 10.5 0 Calma 3 Nordeste 0 -- -- 100
2020-11-02 03:00:00 10.4 0 Calma 3 Nordeste 0 -- -- 100
2020-11-02 02:00:00 10.4 0 Calma 7 Oeste 0 -- -- 100
2020-11-02 01:00:00 10.6 2 Oeste 8 Sudoeste 0 -- -- 100
2020-11-02 00:00:00 10.7 4 Sudoeste 8 Sudoeste 0 -- -- 99
2020-11-01 23:00:00 10.9 0 Calma 3 Oeste 0 -- -- 99
2020-11-01 22:00:00 10.9 0 Calma 4 Oeste 0 -- -- 98
2020-11-01 21:00:00 11.1 0 Calma 3 Sudoeste 0 -- -- 97
2020-11-01 20:00:00 11.2 0 Calma 4 Sur 0 -- -- 97
2020-11-01 19:00:00 11.4 0 Calma 7 Este 0 -- -- 96
2020-11-01 18:00:00 11.5 5 Nordeste 8 Nordeste 0 -- -- 96
2020-11-01 17:00:00 12 4 Sur 11 Sur 0 -- -- 93
2020-11-01 16:00:00 13.3 4 Sur 12 Sudoeste 0 -- -- 88
2020-11-01 15:00:00 14 6 Sudoeste 11 Sudoeste 0 -- -- 85
2020-11-01 14:00:00 14.5 3 Este 7 Sur 0 -- -- 82
2020-11-01 13:00:00 13.7 4 Sudoeste 9 Sudoeste 0 -- -- 86
2020-11-01 12:00:00 12.9 3 Sudoeste 7 Sur 0 -- -- 91
2020-11-01 11:00:00 10.8 3 Norte 5 Norte 0 -- -- 100
2020-11-01 10:00:00 10.1 4 Este 6 Nordeste 0 -- -- 100
2020-11-01 09:00:00 9.8 0 Calma 3 Sudeste 0 -- -- 100
2020-11-01 08:00:00 9.7 0 Calma 3 Oeste 0 -- -- 100
2020-11-01 07:00:00 9.7 0 Calma 4 Sudoeste 0 -- -- 100
2020-11-01 06:00:00 9.7 2 Sudoeste 4 Sur 0 -- -- 100
2020-11-01 05:00:00 9.8 3 Oeste 8 Oeste 0 -- -- 100
2020-11-01 04:00:00 9.9 3 Oeste 8 Norte 0 -- -- 99
2020-11-01 03:00:00 9.9 2 Nordeste 6 Sudeste 0 -- -- 99
2020-11-01 02:00:00 9.8 4 Nordeste 8 Nordeste 0 -- -- 99
2020-11-01 01:00:00 9.8 3 Sudoeste 8 Norte 0 -- -- 97
2020-11-01 00:00:00 10 0 Calma 8 Norte 0 -- -- 97
2020-10-31 23:00:00 9.9 2 Norte 6 Norte 0 -- -- 97
2020-10-31 22:00:00 9.6 3 Norte 7 Norte 0 -- -- 97
2020-10-31 21:00:00 9.1 5 Norte 11 Norte 0 -- -- 98
2020-10-31 20:00:00 9.2 5 Nordeste 8 Norte 0 -- -- 97
2020-10-31 19:00:00 10.6 2 Nordeste 7 Nordeste 0 -- -- 93
2020-10-31 18:00:00 13.5 0 Calma 11 Sudoeste 0 -- -- 82
2020-10-31 17:00:00 14.6 5 Sudoeste 11 Sur 0 -- -- 79
2020-10-31 16:00:00 14.2 6 Sudoeste 12 Sudoeste 0 -- -- 80
2020-10-31 15:00:00 14.3 7 Sudoeste 13 Sur 0 -- -- 80
2020-10-31 14:00:00 12.7 2 Nordeste 7 Sur 0 -- -- 87
2020-10-31 13:00:00 10.8 0 Calma 5 Norte 0 -- -- 98
2020-10-31 12:00:00 9.4 2 Sudeste 8 Sudoeste 0 -- -- 99
2020-10-31 11:00:00 8.9 2 Sudoeste 7 Sudoeste 0 -- -- 99
2020-10-31 10:00:00 8.5 2 Sudoeste 8 Sur 0 -- -- 100
2020-10-31 09:00:00 6.8 0 Calma 5 Noroeste 0 -- -- 100
2020-10-31 08:00:00 5.6 2 Norte 8 Nordeste 0 -- -- 100
2020-10-31 07:00:00 5.8 5 Nordeste 9 Norte 0 -- -- 100
2020-10-31 06:00:00 6.2 6 Nordeste 13 Norte 0 -- -- 100
2020-10-31 05:00:00 4.7 4 Nordeste 10 Norte 0 -- -- 100
2020-10-31 04:00:00 5.3 7 Nordeste 11 Norte 0 -- -- 100
2020-10-31 03:00:00 6 4 Nordeste 14 Norte 0 -- -- 99
2020-10-31 02:00:00 6.4 6 Nordeste 14 Norte 0 -- -- 100
2020-10-31 01:00:00 6 10 Norte 14 Norte 0 -- -- 100
2020-10-31 00:00:00 6.2 7 Nordeste 15 Norte 0 -- -- 98
2020-10-30 23:00:00 6.5 9 Nordeste 13 Norte 0 -- -- 98
2020-10-30 22:00:00 7.1 8 Nordeste 13 Norte 0 -- -- 97
2020-10-30 21:00:00 8.1 8 Norte 13 Norte 0 -- -- 95
2020-10-30 20:00:00 8.4 8 Nordeste 11 Nordeste 0 -- -- 95
2020-10-30 19:00:00 9.6 7 Nordeste 11 Nordeste 0 -- -- 93
2020-10-30 18:00:00 13 4 Sudeste 9 Sudeste 0 -- -- 80
2020-10-30 17:00:00 14.3 3 Sudeste 12 Sudeste 0 -- -- 75
2020-10-30 16:00:00 14.1 4 Sur 12 Sur 0 -- -- 73
2020-10-30 15:00:00 13.2 4 Sur 17 Sur 0 -- -- 73
2020-10-30 14:00:00 13 5 Sur 15 Sudoeste 0 -- -- 76
2020-10-30 13:00:00 12.1 5 Sur 13 Este 0 -- -- 78
2020-10-30 12:00:00 10.7 6 Este 15 Sudeste 0 -- -- 82
2020-10-30 11:00:00 10.1 4 Sur 10 Sur 0 -- -- 82
2020-10-30 10:00:00 8.9 3 Este 5 Este 0 -- -- 87
2020-10-30 09:00:00 7.9 6 Nordeste 13 Nordeste 0 -- -- 91
2020-10-30 08:00:00 7.8 6 Este 10 Sudeste 0 -- -- 93
2020-10-30 07:00:00 7.5 3 Este 8 Nordeste 0 -- -- 96
2020-10-30 06:00:00 6.5 3 Nordeste 6 Nordeste 0 -- -- 97
2020-10-30 05:00:00 5.9 2 Nordeste 9 Nordeste 0 -- -- 98
2020-10-30 04:00:00 5.7 0 Calma 9 Sur 0 -- -- 98
2020-10-30 03:00:00 5.1 6 Nordeste 13 Norte 0 -- -- 99
2020-10-30 02:00:00 3.6 9 Nordeste 11 Nordeste 0 -- -- 100
2020-10-30 01:00:00 3.3 8 Nordeste 14 Nordeste 0 -- -- 99
2020-10-30 00:00:00 3.4 9 Nordeste 13 Nordeste 0 -- -- 99
2020-10-29 23:00:00 3.5 9 Nordeste 11 Nordeste 0 -- -- 99
2020-10-29 22:00:00 4.1 7 Nordeste 10 Nordeste 0 -- -- 98
2020-10-29 21:00:00 5.2 8 Nordeste 11 Norte 0 -- -- 97
2020-10-29 20:00:00 5.9 8 Nordeste 10 Nordeste 0 -- -- 96
2020-10-29 19:00:00 7.7 4 Nordeste 6 Nordeste 0 -- -- 91
2020-10-29 18:00:00 11.4 3 Sur 12 Sudoeste 0 -- -- 73
2020-10-29 17:00:00 13.1 6 Sudoeste 17 Sudoeste 0 -- -- 68
2020-10-29 16:00:00 13.6 6 Sudoeste 17 Sudoeste 0 -- -- 70
2020-10-29 15:00:00 13.5 8 Sudoeste 15 Sudoeste 0 -- -- 70
2020-10-29 14:00:00 13 8 Sudoeste 21 Sudoeste 0 -- -- 73
2020-10-29 13:00:00 12.5 6 Sudoeste 15 Sur 0 -- -- 76
2020-10-29 12:00:00 10.4 5 Sudoeste 12 Sur 0 -- -- 82
2020-10-29 11:00:00 9.2 4 Sudoeste 10 Sur 0 -- -- 84
2020-10-29 10:00:00 6.5 2 Este 10 Norte 0 -- -- 98
2020-10-29 09:00:00 3.7 8 Nordeste 13 Norte 0 -- -- 100
2020-10-29 08:00:00 2.6 5 Nordeste 14 Nordeste 0 -- -- 99
2020-10-29 07:00:00 3.5 11 Norte 15 Norte 0 -- -- 99
2020-10-29 06:00:00 4.6 9 Norte 15 Norte 0 -- -- 99
2020-10-29 05:00:00 4.9 6 Norte 22 Norte 0 -- -- 99
2020-10-29 04:00:00 4.3 9 Norte 17 Norte 0 -- -- 98
2020-10-29 03:00:00 4.9 2 Noroeste 14 Norte 0 -- -- 95
2020-10-29 02:00:00 4 12 Norte 19 Noroeste 0 -- -- 94
2020-10-29 01:00:00 5.2 6 Norte 14 Norte 0 -- -- 93
2020-10-29 00:00:00 6.3 8 Nordeste 24 Noroeste 0 -- -- 90
2020-10-28 23:00:00 7.6 12 Norte 20 Norte 0 -- -- 84
2020-10-28 22:00:00 7.2 9 Norte 17 Norte 0 -- -- 86
2020-10-28 21:00:00 8.1 8 Norte 27 Noroeste 0 -- -- 84
2020-10-28 20:00:00 8.2 9 Nordeste 29 Noroeste 0 -- -- 83
2020-10-28 19:00:00 9.3 21 Noroeste 40 Noroeste 0 -- -- 76
2020-10-28 18:00:00 10.2 24 Noroeste 37 Noroeste 0 -- -- 74
2020-10-28 17:00:00 11.5 24 Noroeste 36 Noroeste 0 -- -- 68
2020-10-28 16:00:00 12.5 15 Oeste 40 Noroeste 0 -- -- 65
2020-10-28 15:00:00 12.2 27 Noroeste 46 Noroeste 0 -- -- 64
2020-10-28 14:00:00 11.8 25 Noroeste 43 Noroeste 0 -- -- 71
2020-10-28 13:00:00 11.3 25 Noroeste 43 Noroeste 0 -- -- 73
2020-10-28 12:00:00 10.3 13 Noroeste 34 Oeste 0 -- -- 78
2020-10-28 11:00:00 9.3 15 Noroeste 34 Noroeste 0 -- -- 86
2020-10-28 10:00:00 9.3 11 Noroeste 31 Oeste 0 -- -- 90
2020-10-28 09:00:00 8.5 14 Noroeste 24 Noroeste 0 -- -- 95
2020-10-28 08:00:00 7.3 6 Noroeste 13 Noroeste 0 -- -- 97
2020-10-28 07:00:00 7 3 Oeste 14 Noroeste 0 -- -- 98
2020-10-28 06:00:00 7.5 8 Noroeste 11 Oeste 0 -- -- 97
2020-10-28 05:00:00 8.3 5 Noroeste 20 Noroeste 0.2 -- -- 96
2020-10-28 04:00:00 8.9 10 Noroeste 32 Noroeste 0 -- -- 99
2020-10-28 03:00:00 8.8 4 Sudoeste 8 Sur 0.4 -- -- 100
2020-10-28 02:00:00 8.8 2 Sur 7 Sur 0 -- -- 100
2020-10-28 01:00:00 8.8 0 Calma 4 Sudeste 0.4 -- -- 100
2020-10-28 00:00:00 8.8 0 Calma 6 Oeste 0.4 -- -- 100
2020-10-27 23:00:00 8.8 0 Calma 5 Oeste 0.6 -- -- 100
2020-10-27 22:00:00 8.9 0 Calma 6 Nordeste 0.6 -- -- 100
2020-10-27 21:00:00 9 5 Nordeste 8 Nordeste 0.2 -- -- 99
2020-10-27 20:00:00 9 2 Sur 6 Nordeste 1 -- -- 98
2020-10-27 19:00:00 9.1 0 Calma 6 Oeste 0 -- -- 96
2020-10-27 18:00:00 9.4 4 Noroeste 9 Norte 0 -- -- 95
2020-10-27 17:00:00 9.9 2 Norte 19 Noroeste 0.2 -- -- 96
2020-10-27 16:00:00 9.5 6 Norte 17 Oeste 0.2 -- -- 98
2020-10-27 15:00:00 9.1 9 Norte 26 Oeste 0.2 -- -- 97
2020-10-27 14:00:00 9.4 9 Noroeste 19 Noroeste 0 -- -- 92
2020-10-27 13:00:00 8.8 10 Oeste 19 Oeste 0.2 -- -- 94
2020-10-27 12:00:00 7.9 4 Oeste 20 Oeste 0 -- -- 95
2020-10-27 11:00:00 7.9 14 Noroeste 23 Oeste 0 -- -- 95
2020-10-27 10:00:00 7 9 Oeste 16 Noroeste 0 -- -- 92
2020-10-27 09:00:00 6.6 6 Noroeste 24 Noroeste 0 -- -- 94
2020-10-27 08:00:00 6.3 17 Noroeste 30 Noroeste 0 -- -- 92
2020-10-27 07:00:00 5.8 10 Noroeste 35 Noroeste 0 -- -- 94
2020-10-27 06:00:00 5.8 17 Noroeste 37 Noroeste 0 -- -- 92
2020-10-27 05:00:00 5.4 18 Noroeste 33 Noroeste 0 -- -- 94
2020-10-27 04:00:00 5.2 18 Noroeste 37 Noroeste 0 -- -- 93
2020-10-27 03:00:00 5.3 9 Noroeste 22 Noroeste -- -- -- 95
2020-10-27 02:00:00 5.3 9 Noroeste 26 Noroeste 0.2 -- -- 97
2020-10-27 01:00:00 5.3 11 Noroeste 25 Noroeste 0 -- -- 97
2020-10-27 00:00:00 5.4 8 Noroeste 23 Noroeste 0 -- -- 96